ADDS METAR Data INFO
IDs: Format: Raw Decoded Include TAF

Data at: 1352 UTC 23 Jun 2018

K1M4 231256Z AUTO 22006KT 10SM BKN006 BKN016 22/ A2994 RMK AO2 LTG DSNT ALQDS TSE1158B06E50RAE29 CIG 004V009 SLP144 P0003 T0217
K1M4 231250Z AUTO 23005KT 10SM SCT006 BKN016 OVC070 22/ A2994 RMK AO2 LTG DSNT ALQDS TSE1158B06E50RAE29 P0003
K1M4 231216Z AUTO 19003KT 3SM TSRA BKN004 BKN009 OVC021 21/ A2993 RMK AO2 LTG DSNT SE-W TSE1158B06 P0003
K1M4 231205Z AUTO 19005KT 4SM RA BR FEW004 BKN011 OVC032 21/21 A2993 RMK AO2 LTG DSNT SE-W TSE1158 P0002
K1M4 231156Z AUTO 18006KT 3SM VCTS +RA BR FEW006 BKN024 OVC032 21/21 A2992 RMK AO2 LTG DSNT SE-SW RAB17 SLP136 P0008 60008 70010 T02110211 10211 20194 51015
K1M4 231056Z AUTO 19004KT 10SM VCTS OVC024 21/21 A2991 RMK AO2 LTG DSNT SE-W TSB45 SLP136 T02110211
K1M4 230956Z AUTO 19005KT 10SM OVC026 21/21 A2989 RMK AO2 SLP128 T02060206
K1M4 230943Z AUTO 19006KT 10SM OVC028 20/ A2988 RMK AO2
K1M4 230856Z AUTO 21003KT 10SM FEW030 SCT038 20/ A2987 RMK AO2 SLP120 T0200 55005
K1M4 230756Z AUTO 00000KT 10SM CLR 20/ A2987 RMK AO2 SLP120 T0200
K1M4 230656Z AUTO 00000KT 10SM SCT009 21/21 A2988 RMK AO2 SLP123 T02060206
K1M4 230630Z AUTO 21005KT 10SM BKN009 21/21 A2988 RMK AO2
K1M4 230556Z AUTO 21005KT 10SM BKN060 OVC075 21/21 A2988 RMK AO2 SLP126 T02110211 10261 20211 51008
K1M4 230547Z AUTO 21003KT 10SM FEW014 OVC065 21/21 A2988 RMK AO2
K1M4 230456Z AUTO 22004KT 10SM BKN014 22/22 A2988 RMK AO2 SLP123 T02170217 402890194
K1M4 230419Z AUTO 22004KT 10SM FEW012 22/22 A2986 RMK AO2
K1M4 230356Z AUTO 21005KT 10SM BKN014 23/23 A2986 RMK AO2 SLP117 T02280228 TSNO
K1M4 230353Z AUTO 21004KT 10SM BKN014 23/23 A2986 RMK AO2
K1M4 230256Z AUTO 24004KT 10SM BKN016 BKN060 23/23 A2987 RMK AO2 SLP118 T02330228 53025
K1M4 230156Z AUTO 23008KT 10SM OVC019 24/23 A2984 RMK AO2 SLPNO T02440228
K1M4 230056Z AUTO 25006KT 10SM BKN017 OVC025 25/24 A2981 RMK AO2 LTG DSNT NE SLP101 T02500244
K1M4 222356Z AUTO 22012KT 10SM SCT019 BKN029 26/25 A2979 RMK AO2 LTG DSNT NW-E TSE20RAE2259 SLP094 P0000 60002 T02610250 10289 20256 56010
K1M4 222331Z AUTO 23011G15KT 10SM BKN019 BKN024 OVC030 26/25 A2980 RMK AO2 LTG DSNT NE AND E TSE20RAE2259 P0000
K1M4 222256Z AUTO 24007KT 10SM VCTS -RA BKN021 BKN031 OVC080 26/24 A2979 RMK AO2 LTG DSNT NE TSB34E52B54RAB45 SLP096 P0002 T02560244
K1M4 222229Z AUTO 23011G18KT 10SM SCT034 BKN047 OVC080 27/23 A2980 RMK AO2 LTG DSNT N AND NE
K1M4 222156Z AUTO 22011G18KT 10SM BKN028 BKN033 28/23 A2981 RMK AO2 LTG DSNT N SLP101 T02830233
K1M4 222056Z AUTO 22012G16KT 10SM BKN026 BKN035 28/23 A2982 RMK AO2 SLP104 60000 T02830233 58019
K1M4 222023Z AUTO 22010KT 10SM BKN029 28/23 A2983 RMK AO2
K1M4 221956Z AUTO 22011KT 10SM FEW027 28/22 A2984 RMK AO2 RAE01 SLP111 P0000 T02780222
K1M4 221856Z AUTO 22011G17KT 10SM -RA FEW050 SCT065 BKN110 27/22 A2987 RMK AO2 RAB48 SLP120 P0000 T02670222
K1M4 221841Z AUTO 24011G18KT 10SM FEW018 BKN065 BKN080 26/22 A2988 RMK AO2
K1M4 221756Z AUTO 23015G25KT 10SM BKN022 26/23 A2988 RMK AO2 LTG DSNT SE AND S SLP124 T02610228 10278 20200 56006
K1M4 221742Z AUTO 24015G24KT 10SM SCT015 BKN020 BKN025 27/23 A2988 RMK AO2 LTG DSNT SE AND S
K1M4 221656Z AUTO 21014KT 10SM OVC013 26/24 A2988 RMK AO2 LTG DSNT N SLP126 T02610244
K1M4 221652Z AUTO 22013G16KT 10SM OVC013 27/24 A2988 RMK AO2 LTG DSNT N
K1M4 221534Z AUTO 23007G14KT 10SM BKN017 BKN025 OVC075 26/23 A2989 RMK AO2
K1M4 221456Z AUTO 24008KT 10SM BKN120 26/22 A2988 RMK AO2 SLP123 T02610217 58003
K1M4 221356Z AUTO 23007KT 10SM CLR A2988 RMK AO2 SLPNO FZRANO $
K1M4 221319Z AUTO 21006KT 10SM FEW005 23/22 A2988 RMK AO2
K1M4 221256Z AUTO 22009KT 10SM BKN005 22/22 A2989 RMK AO2 SLP127 T02170217
K1M4 221156Z AUTO 21004KT 9SM OVC003 20/ A2989 RMK AO2 SLP126 60005 70124 T0200 10200 20194 53009
K1M4 221056Z AUTO 24004KT 9SM OVC003 19/ A2988 RMK AO2 SLP124 T0194
K1M4 220956Z AUTO 23006KT 8SM OVC003 19/ A2986 RMK AO2 SLP117 T0194
K1M4 220914Z AUTO 21006KT 10SM OVC003 19/ A2986 RMK AO2
K1M4 220856Z AUTO 22005KT 10SM BKN005 19/19 A2986 RMK AO2 SLP118 60005 T01940194 56003
K1M4 220824Z AUTO 20005KT 10SM FEW005 19/19 A2985 RMK AO2 LTG DSNT S
K1M4 220756Z AUTO 21005KT 10SM FEW120 19/19 A2985 RMK AO2 RAB02E51 SLP115 P0002 T01940194
K1M4 220656Z AUTO 22008KT 10SM FEW005 BKN120 19/ A2987 RMK AO2 LTG DSNT S AND SW RAE48 SLP121 P0003 T0194
K1M4 220646Z AUTO 21007KT 10SM -RA FEW005 BKN120 19/19 A2986 RMK AO2 LTG DSNT SW P0003
K1M4 220556Z AUTO VRB03KT 10SM -RA BKN100 20/20 A2986 RMK AO2 LTG DSNT ALQDS TSE24B28E34 PRESFR SLP119 P0030 60068 T02000200 10250 20189 58009
K1M4 220528Z AUTO 20004KT 10SM VCTS -RA FEW015 BKN065 OVC120 19/19 A2989 RMK AO2 LTG DSNT NE AND SE AND SW TSE24B28 P0030
K1M4 220522Z AUTO 18006KT 10SM VCTS -RA FEW015 BKN045 OVC120 19/19 A2989 RMK AO2 LTG DSNT SE-SW PRESFR P0029
K1M4 220507Z AUTO 23006G18KT 3SM +TSRA BR FEW009 BKN028 OVC040 19/19 A2991 RMK AO2 LTG DSNT S-W P0025
K1M4 220456Z AUTO 24008KT 10SM -TSRA SCT035 BKN043 OVC100 19/19 A2992 RMK AO2 LTG DSNT SW AND W TSE03B50 PRESRR SLP139 P0011 T01940194 402890189
K1M4 220414Z AUTO VRB03KT 3SM RA BR FEW018 BKN049 OVC070 19/19 A2988 RMK AO2 LTG DSNT NE TSE03 PRESFR P0009
K1M4 220356Z AUTO 00000KT 10SM VCTS -RA SCT009 BKN047 OVC060 19/19 A2991 RMK AO2 TSB08RAB27 SLP135 P0027 T01940194
K1M4 220342Z AUTO 33007G14KT 5SM VCTS +RA BR SCT007 BKN014 OVC023 19/19 A2991 RMK AO2 LTG DSNT NE TSB08RAB27 P0026
K1M4 220325Z AUTO 32010KT 10SM VCTS FEW009 SCT015 OVC022 21/21 A2992 RMK AO2 LTG DSNT NE AND NW TSB08 PRESRR
K1M4 220319Z AUTO 35009KT 10SM VCTS BKN013 OVC022 21/20 A2989 RMK AO2 LTG DSNT NE AND NW TSB08
K1M4 220256Z AUTO 34009KT 10SM OVC011 23/21 A2989 RMK AO2 LTG DSNT N AND NE SLP128 T02280206 53014
K1M4 220238Z AUTO VRB04KT 10SM BKN011 BKN025 24/23 A2987 RMK AO2 LTG DSNT NW-NE CIG 009V014
K1M4 220156Z AUTO 18006KT 10SM FEW030 SCT050 24/24 A2984 RMK AO2 LTG DSNT NE SLP113 T02440244